createdAt,value
2022-08-10T00:01:51.257Z,70.30
2022-08-10T00:04:21.583Z,69.50
2022-08-10T00:06:51.756Z,69.30
2022-08-10T00:09:22.081Z,69.70
2022-08-10T00:11:50.388Z,70.90
2022-08-10T00:14:18.782Z,71.10
2022-08-10T00:16:47.117Z,70.10
2022-08-10T00:19:16.717Z,70.50
2022-08-10T00:21:45.861Z,70.80
2022-08-10T00:24:14.213Z,71.10
2022-08-10T00:28:00.881Z,71.70
2022-08-10T00:29:33.856Z,71.40
2022-08-10T00:32:02.241Z,72.20
2022-08-10T00:34:31.958Z,72.70
2022-08-10T00:37:00.614Z,71.90
2022-08-10T00:39:30.147Z,72.10
2022-08-10T00:42:08.292Z,72.00
2022-08-10T00:44:38.359Z,71.50
2022-08-10T00:47:07.529Z,73.10
2022-08-10T00:49:47.495Z,73.10
2022-08-10T00:52:18.382Z,73.10
2022-08-10T00:54:46.661Z,72.60
2022-08-10T00:57:18.608Z,73.20
2022-08-10T00:59:58.378Z,72.80
2022-08-10T01:02:30.554Z,74.20
2022-08-10T01:05:02.491Z,73.40
2022-08-10T01:07:58.220Z,74.10
2022-08-10T01:10:51.082Z,74.40
2022-08-10T01:13:28.685Z,75.00
2022-08-10T01:16:03.428Z,75.40
2022-08-10T01:18:43.655Z,75.20
2022-08-10T01:21:54.239Z,75.30
2022-08-10T01:24:45.790Z,75.20
2022-08-10T01:27:33.610Z,75.20
2022-08-10T01:30:06.950Z,75.20
2022-08-10T01:32:49.391Z,75.60
2022-08-10T01:35:25.798Z,76.40
2022-08-10T01:38:03.427Z,77.40
2022-08-10T01:40:35.819Z,76.40
2022-08-10T01:43:08.670Z,76.40
2022-08-10T01:45:45.197Z,77.50
2022-08-10T01:48:31.841Z,77.00
2022-08-10T01:51:18.949Z,77.90
2022-08-10T01:53:52.959Z,78.00
2022-08-10T01:56:28.039Z,78.00
2022-08-10T01:59:04.230Z,78.10
2022-08-10T02:01:39.769Z,78.00
2022-08-10T02:04:11.146Z,79.10
2022-08-10T02:06:45.060Z,79.10
2022-08-10T02:09:18.582Z,78.70
2022-08-10T02:12:06.546Z,79.10
2022-08-10T02:14:38.457Z,79.50
2022-08-10T02:18:00.140Z,78.60
2022-08-10T02:20:11.192Z,79.00
2022-08-10T02:22:40.573Z,80.00
2022-08-10T02:25:39.940Z,78.90
2022-08-10T02:27:59.606Z,79.30
2022-08-10T02:30:29.336Z,80.80
2022-08-10T02:33:00.220Z,79.30
2022-08-10T02:35:29.191Z,80.30
2022-08-10T02:38:21.990Z,82.20
2022-08-10T02:45:13.776Z,81.90
2022-08-10T02:45:21.831Z,82.00
2022-08-10T02:47:04.608Z,82.20
2022-08-10T02:49:44.298Z,82.10
2022-08-10T02:52:19.235Z,82.90
2022-08-10T02:54:53.685Z,83.60
2022-08-10T02:57:28.600Z,83.40
2022-08-10T03:00:03.381Z,84.10
2022-08-10T03:02:36.387Z,84.10
2022-08-10T03:05:10.631Z,84.30
2022-08-10T03:07:45.239Z,84.40
2022-08-10T03:10:18.749Z,83.90
2022-08-10T03:12:53.209Z,85.00
2022-08-10T03:15:22.861Z,85.60
2022-08-10T03:17:57.403Z,86.00
2022-08-10T03:20:37.336Z,86.10
2022-08-10T03:23:12.670Z,86.50
2022-08-10T03:25:41.597Z,86.30
2022-08-10T03:28:23.253Z,86.70
2022-08-10T03:30:52.177Z,87.40
2022-08-10T03:33:23.416Z,88.20
2022-08-10T03:36:40.144Z,87.70
2022-08-10T03:38:41.515Z,87.20
2022-08-10T03:41:16.170Z,87.70
2022-08-10T03:43:48.137Z,88.10
2022-08-10T03:46:19.993Z,88.30
2022-08-10T03:48:51.241Z,87.70
2022-08-10T03:51:21.730Z,88.30
2022-08-10T03:54:02.857Z,89.00
2022-08-10T03:56:37.347Z,89.60
2022-08-10T03:59:06.726Z,89.30
2022-08-10T04:02:45.385Z,89.90
2022-08-10T04:04:25.140Z,89.50
2022-08-10T04:06:57.360Z,88.80
2022-08-10T04:09:43.120Z,89.30
2022-08-10T04:12:17.120Z,90.10
2022-08-10T04:14:50.563Z,89.20
2022-08-10T04:18:03.006Z,89.80
2022-08-10T04:20:17.116Z,90.00
2022-08-10T04:22:52.209Z,90.10
2022-08-10T04:25:22.283Z,90.30
2022-08-10T04:27:51.664Z,90.40
2022-08-10T04:30:20.017Z,90.40
2022-08-10T04:32:53.915Z,90.50
2022-08-10T04:35:24.161Z,90.80
2022-08-10T04:37:57.696Z,91.00
2022-08-10T04:40:29.103Z,90.80
2022-08-10T04:43:11.820Z,90.80
2022-08-10T04:45:50.107Z,91.30
2022-08-10T04:48:40.278Z,91.10
2022-08-10T04:51:15.983Z,91.20
2022-08-10T04:54:04.738Z,91.40
2022-08-10T04:56:36.939Z,91.60
2022-08-10T04:59:06.289Z,91.00
2022-08-10T05:02:12.114Z,91.20
2022-08-10T05:04:34.551Z,91.30
2022-08-10T05:07:06.278Z,91.90
2022-08-10T05:10:00.441Z,92.00
2022-08-10T05:12:24.340Z,92.20
2022-08-10T05:14:53.919Z,92.30
2022-08-10T05:17:25.093Z,92.90
2022-08-10T05:20:04.045Z,93.30
2022-08-10T05:22:36.606Z,93.10
2022-08-10T05:25:09.610Z,93.30
2022-08-10T05:27:38.142Z,93.00
2022-08-10T05:30:08.752Z,92.90
2022-08-10T05:32:56.227Z,92.90
2022-08-10T05:35:27.102Z,93.00
2022-08-10T05:38:09.385Z,92.90
2022-08-10T05:40:46.563Z,93.20
2022-08-10T05:43:18.846Z,93.20
2022-08-10T05:46:18.651Z,93.20
2022-08-10T05:48:55.067Z,93.80
2022-08-10T05:51:27.425Z,93.90
2022-08-10T05:54:00.910Z,94.00
2022-08-10T05:56:54.105Z,94.30
2022-08-10T06:00:35.616Z,93.50
2022-08-10T06:02:33.929Z,92.50
2022-08-10T06:05:09.855Z,90.40
2022-08-10T06:07:45.658Z,88.10
2022-08-10T06:10:30.006Z,85.60
2022-08-10T06:13:29.815Z,81.60
2022-08-10T06:16:04.140Z,78.50
2022-08-10T06:18:32.685Z,74.00
2022-08-10T06:21:01.918Z,75.90
2022-08-10T06:23:32.132Z,74.40
2022-08-10T06:26:11.844Z,71.20
2022-08-10T06:29:01.998Z,69.40
2022-08-10T06:31:48.820Z,67.00
2022-08-10T06:34:22.633Z,59.80
2022-08-10T06:36:52.822Z,60.60
2022-08-10T06:39:37.565Z,55.70
2022-08-10T06:42:17.879Z,55.20
2022-08-10T06:44:56.581Z,53.40
2022-08-10T06:47:33.003Z,53.00
2022-08-10T06:50:09.612Z,51.40
2022-08-10T06:52:39.735Z,48.70
2022-08-10T06:55:13.071Z,50.40
2022-08-10T06:57:46.145Z,48.60
2022-08-10T07:00:34.485Z,46.40
2022-08-10T07:03:09.811Z,47.80
2022-08-10T07:05:42.971Z,47.20
2022-08-10T07:08:13.173Z,45.30
2022-08-10T07:10:46.289Z,47.90
2022-08-10T07:14:14.726Z,48.10
2022-08-10T07:16:13.206Z,45.80
2022-08-10T07:18:44.485Z,44.20
2022-08-10T07:21:15.127Z,44.90
2022-08-10T07:23:58.092Z,44.40
2022-08-10T07:26:28.805Z,41.50
2022-08-10T07:28:59.296Z,40.50
2022-08-10T07:31:56.165Z,42.30
2022-08-10T07:34:29.251Z,40.60
2022-08-10T07:37:03.271Z,39.40
2022-08-10T07:40:02.997Z,40.30
2022-08-10T07:42:25.839Z,40.50
2022-08-10T07:44:54.115Z,38.00
2022-08-10T07:47:52.759Z,40.00
2022-08-10T07:50:24.342Z,41.30
2022-08-10T07:52:55.471Z,41.80
2022-08-10T07:56:04.329Z,39.70
2022-08-10T07:58:14.382Z,36.50
2022-08-10T08:00:44.137Z,36.30
2022-08-10T08:03:15.085Z,37.10
2022-08-10T08:06:02.643Z,37.00
2022-08-10T08:08:33.513Z,34.80
2022-08-10T08:11:03.421Z,36.30
2022-08-10T08:13:32.858Z,37.00
2022-08-10T08:16:20.671Z,35.70
2022-08-10T08:19:27.836Z,35.70
2022-08-10T08:24:05.068Z,35.30
2022-08-10T08:24:36.960Z,35.00
2022-08-10T08:27:07.775Z,36.50
2022-08-10T08:29:41.262Z,37.60
2022-08-10T08:32:12.005Z,38.70
2022-08-10T08:34:45.296Z,36.10
2022-08-10T08:38:26.536Z,36.50
2022-08-10T08:40:09.119Z,37.00
2022-08-10T08:43:09.524Z,34.00
2022-08-10T08:46:01.278Z,36.00
2022-08-10T08:48:52.539Z,34.40
2022-08-10T08:52:07.928Z,34.70
2022-08-10T08:54:43.777Z,36.20
2022-08-10T08:57:50.273Z,35.10
2022-08-10T09:00:20.809Z,33.00
2022-08-10T09:03:11.673Z,34.80
2022-08-10T09:05:59.590Z,33.40
2022-08-10T09:09:11.473Z,33.40
2022-08-10T09:11:59.146Z,34.70
2022-08-10T09:14:32.447Z,33.00
2022-08-10T09:17:12.395Z,32.60
2022-08-10T09:19:51.009Z,33.20
2022-08-10T09:22:30.924Z,33.00
2022-08-10T09:25:16.216Z,32.40
2022-08-10T09:27:49.319Z,35.20
2022-08-10T09:30:25.450Z,32.30
2022-08-10T09:36:23.501Z,31.30
2022-08-10T09:36:23.688Z,31.60
2022-08-10T09:39:11.519Z,31.90
2022-08-10T09:42:14.721Z,31.60
2022-08-10T09:44:58.176Z,31.70
2022-08-10T09:48:00.995Z,33.00
2022-08-10T09:51:09.314Z,30.80
2022-08-10T09:53:39.237Z,33.00
2022-08-10T09:56:28.832Z,31.70
2022-08-10T09:59:29.228Z,31.40
2022-08-10T10:02:11.084Z,35.00
2022-08-10T10:04:52.265Z,31.70
2022-08-10T10:07:27.723Z,32.90
2022-08-10T10:10:03.292Z,33.60
2022-08-10T10:12:43.768Z,31.70
2022-08-10T10:15:27.616Z,31.70
2022-08-10T10:18:26.499Z,31.80
2022-08-10T10:21:04.379Z,33.30
2022-08-10T10:24:19.683Z,32.10
2022-08-10T10:26:49.236Z,30.90
2022-08-10T10:29:58.231Z,31.40
2022-08-10T10:32:36.534Z,31.00
2022-08-10T10:35:17.524Z,32.30
2022-08-10T10:38:00.866Z,32.10
2022-08-10T10:40:43.961Z,32.20
2022-08-10T10:43:27.432Z,32.40
2022-08-10T10:46:06.111Z,32.70
2022-08-10T10:48:42.043Z,33.20
2022-08-10T10:51:19.254Z,33.00
2022-08-10T10:53:57.827Z,32.10
2022-08-10T10:56:33.035Z,33.40
2022-08-10T10:59:54.423Z,31.90
2022-08-10T11:02:18.691Z,32.90
2022-08-10T11:04:59.095Z,33.30
2022-08-10T11:07:36.229Z,33.50
2022-08-10T11:10:32.561Z,34.40
2022-08-10T11:14:26.038Z,34.10
2022-08-10T11:16:19.692Z,34.50
2022-08-10T11:19:00.245Z,36.40
2022-08-10T11:21:44.384Z,36.80
2022-08-10T11:24:48.700Z,37.50
2022-08-10T11:27:22.538Z,36.40
2022-08-10T11:30:00.536Z,35.20
2022-08-10T11:32:42.770Z,36.20
2022-08-10T11:35:23.667Z,36.60
2022-08-10T11:38:32.855Z,38.20
2022-08-10T11:41:14.575Z,36.40
2022-08-10T11:44:04.780Z,39.20
2022-08-10T11:46:37.621Z,38.90
2022-08-10T11:49:13.126Z,37.90
2022-08-10T11:51:47.028Z,38.40
2022-08-10T11:54:27.406Z,35.90
2022-08-10T11:57:02.624Z,36.00
2022-08-10T11:59:58.618Z,37.10
2022-08-10T12:02:34.099Z,36.40
2022-08-10T12:05:08.764Z,36.30
2022-08-10T12:10:02.263Z,36.80
2022-08-10T12:10:40.211Z,37.50
2022-08-10T12:13:14.059Z,38.10
2022-08-10T12:15:52.200Z,37.70
2022-08-10T12:18:26.465Z,37.40
2022-08-10T12:21:01.127Z,37.80
2022-08-10T12:23:40.382Z,40.00
2022-08-10T12:26:14.911Z,40.00
2022-08-10T12:28:51.998Z,37.50
2022-08-10T12:31:27.973Z,38.10
2022-08-10T12:34:15.997Z,37.80
2022-08-10T12:36:50.694Z,39.60
2022-08-10T12:39:26.521Z,37.60
2022-08-10T12:42:06.530Z,38.00
2022-08-10T12:44:44.172Z,37.50
2022-08-10T12:47:23.242Z,37.80
2022-08-10T12:50:26.675Z,37.80
2022-08-10T12:52:58.192Z,36.70
2022-08-10T12:55:29.081Z,36.40
2022-08-10T12:58:01.767Z,34.90
2022-08-10T13:00:35.478Z,35.70
2022-08-10T13:03:07.257Z,35.90
2022-08-10T13:05:57.579Z,36.40
2022-08-10T13:08:43.439Z,36.80
2022-08-10T13:12:34.239Z,36.90
2022-08-10T13:14:11.656Z,37.20
2022-08-10T13:16:41.956Z,36.40
2022-08-10T13:19:12.025Z,35.40
2022-08-10T13:21:41.263Z,34.00
2022-08-10T13:24:14.075Z,36.00
2022-08-10T13:27:24.792Z,36.40
2022-08-10T13:29:44.690Z,35.60
2022-08-10T13:32:25.307Z,37.30
2022-08-10T13:34:56.381Z,35.30
2022-08-10T13:37:27.569Z,35.30
2022-08-10T13:40:00.895Z,35.60
2022-08-10T13:42:34.156Z,35.90
2022-08-10T13:45:10.821Z,35.20
2022-08-10T13:47:48.692Z,35.00
2022-08-10T13:50:35.539Z,35.80
2022-08-10T13:53:14.439Z,35.00
2022-08-10T13:55:53.972Z,35.20
2022-08-10T13:58:27.139Z,35.00
2022-08-10T14:00:58.261Z,35.40
2022-08-10T14:03:28.418Z,35.50
2022-08-10T14:05:58.251Z,34.90
2022-08-10T14:08:30.768Z,36.00
2022-08-10T14:11:11.101Z,35.30
2022-08-10T14:13:46.762Z,36.40
2022-08-10T14:16:18.364Z,36.50
2022-08-10T14:18:48.839Z,35.80
2022-08-10T14:21:17.316Z,35.50
2022-08-10T14:23:52.182Z,35.00
2022-08-10T14:26:25.980Z,35.10
2022-08-10T14:28:58.791Z,35.70
2022-08-10T14:31:35.977Z,34.70
2022-08-10T14:34:09.459Z,34.80
2022-08-10T14:36:44.039Z,34.80
2022-08-10T14:39:21.781Z,34.50
2022-08-10T14:42:02.764Z,36.10
2022-08-10T14:44:47.386Z,35.80
2022-08-10T14:47:52.606Z,35.20
2022-08-10T14:50:31.813Z,34.80
2022-08-10T14:53:09.244Z,34.90
2022-08-10T14:55:57.530Z,35.10
2022-08-10T14:58:31.142Z,35.30
2022-08-10T15:01:00.186Z,35.30
2022-08-10T15:04:02.147Z,35.10
2022-08-10T15:06:30.267Z,35.00
2022-08-10T15:09:05.897Z,34.90
2022-08-10T15:12:15.110Z,35.00
2022-08-10T15:14:42.564Z,35.30
2022-08-10T15:17:15.282Z,36.20
2022-08-10T15:20:03.816Z,35.90
2022-08-10T15:22:40.277Z,35.10
2022-08-10T15:25:19.282Z,34.70
2022-08-10T15:27:57.509Z,35.60
2022-08-10T15:30:32.137Z,35.70
2022-08-10T15:33:57.948Z,37.00
2022-08-10T15:36:37.292Z,35.60
2022-08-10T15:39:16.557Z,35.70
2022-08-10T15:42:03.436Z,35.40
2022-08-10T15:44:40.568Z,35.70
2022-08-10T15:47:15.286Z,35.70
2022-08-10T15:49:51.740Z,36.80
2022-08-10T15:53:00.230Z,35.60
2022-08-10T15:55:41.581Z,35.40
2022-08-10T15:58:20.192Z,35.20
2022-08-10T16:02:04.621Z,35.50
2022-08-10T16:04:08.048Z,36.10
2022-08-10T16:06:43.728Z,36.10
2022-08-10T16:10:24.332Z,35.00
2022-08-10T16:12:14.638Z,35.20
2022-08-10T16:14:47.359Z,35.20
2022-08-10T16:17:17.453Z,35.80
2022-08-10T16:19:51.935Z,35.40
2022-08-10T16:22:36.146Z,35.10
2022-08-10T16:25:15.492Z,35.40
2022-08-10T16:27:45.206Z,35.10
2022-08-10T16:30:15.383Z,36.10
2022-08-10T16:32:44.942Z,37.00
2022-08-10T16:35:18.860Z,36.30
2022-08-10T16:37:57.338Z,36.00
2022-08-10T16:40:30.671Z,36.50
2022-08-10T16:43:03.173Z,36.10
2022-08-10T16:45:36.983Z,34.90
2022-08-10T16:48:12.407Z,34.60
2022-08-10T16:50:51.696Z,34.70
2022-08-10T16:53:22.792Z,35.00
2022-08-10T16:55:55.877Z,35.40
2022-08-10T16:58:28.466Z,35.70
2022-08-10T17:01:02.477Z,36.20
2022-08-10T17:04:06.113Z,35.50
2022-08-10T17:06:32.131Z,35.50
2022-08-10T17:09:03.096Z,36.20
2022-08-10T17:11:37.131Z,36.20
2022-08-10T17:14:10.731Z,36.10
2022-08-10T17:16:43.996Z,36.20
2022-08-10T17:19:15.931Z,36.10
2022-08-10T17:21:52.647Z,36.90
2022-08-10T17:24:25.239Z,37.30
2022-08-10T17:26:59.160Z,35.20
2022-08-10T17:29:57.435Z,35.30
2022-08-10T17:32:30.638Z,35.50
2022-08-10T17:35:01.780Z,35.50
2022-08-10T17:37:35.560Z,36.60
2022-08-10T17:40:09.704Z,37.20
2022-08-10T17:42:41.001Z,37.20
2022-08-10T17:45:46.365Z,37.50
2022-08-10T17:48:10.409Z,36.90
2022-08-10T17:50:39.989Z,38.40
2022-08-10T17:53:17.549Z,38.70
2022-08-10T17:55:48.278Z,39.40
2022-08-10T17:58:19.853Z,39.20
2022-08-10T18:00:52.081Z,40.20
2022-08-10T18:03:25.484Z,41.20
2022-08-10T18:05:56.769Z,41.30
2022-08-10T18:08:29.731Z,43.20
2022-08-10T18:11:00.269Z,43.10
2022-08-10T18:13:55.748Z,43.60
2022-08-10T18:16:27.382Z,43.90
2022-08-10T18:19:00.541Z,43.50
2022-08-10T18:21:32.068Z,45.50
2022-08-10T18:24:07.754Z,44.70
2022-08-10T18:26:37.619Z,44.80
2022-08-10T18:29:13.358Z,45.20
2022-08-10T18:31:49.677Z,45.00
2022-08-10T18:34:21.623Z,45.00
2022-08-10T18:36:52.337Z,45.20
2022-08-10T18:39:25.063Z,46.00
2022-08-10T18:42:05.188Z,46.00
2022-08-10T18:44:41.182Z,46.40
2022-08-10T18:47:16.405Z,46.90
2022-08-10T18:49:59.789Z,46.90
2022-08-10T18:52:33.146Z,47.00
2022-08-10T18:55:24.445Z,47.60
2022-08-10T18:58:14.898Z,47.60
2022-08-10T19:01:07.648Z,48.40
2022-08-10T19:04:00.707Z,48.30
2022-08-10T19:07:07.195Z,48.30
2022-08-10T19:09:49.933Z,49.20
2022-08-10T19:12:37.731Z,49.00
2022-08-10T19:15:19.263Z,49.30
2022-08-10T19:18:05.745Z,49.40
2022-08-10T19:20:43.012Z,49.70
2022-08-10T19:23:26.470Z,50.00
2022-08-10T19:26:42.130Z,50.10
2022-08-10T19:29:00.214Z,50.80
2022-08-10T19:31:44.349Z,51.40
2022-08-10T19:34:45.961Z,51.60
2022-08-10T19:37:32.412Z,51.70
2022-08-10T19:40:44.448Z,52.20
2022-08-10T19:43:30.789Z,52.30
2022-08-10T19:46:19.404Z,52.00
2022-08-10T19:48:59.897Z,52.70
2022-08-10T19:51:39.761Z,52.70
2022-08-10T19:54:15.614Z,52.70
2022-08-10T19:56:59.319Z,53.20
2022-08-10T20:00:16.852Z,53.00
2022-08-10T20:02:30.470Z,53.90
2022-08-10T20:05:17.731Z,55.00
2022-08-10T20:07:56.958Z,54.50
2022-08-10T20:10:31.209Z,54.90
2022-08-10T20:13:10.242Z,54.70
2022-08-10T20:15:46.194Z,55.30
2022-08-10T20:18:24.740Z,56.50
2022-08-10T20:21:00.095Z,56.00
2022-08-10T20:23:34.962Z,55.50
2022-08-10T20:26:12.410Z,56.20
2022-08-10T20:28:44.587Z,56.50
2022-08-10T20:31:23.179Z,56.60
2022-08-10T20:34:01.711Z,56.80
2022-08-10T20:36:34.021Z,57.40
2022-08-10T20:39:15.407Z,56.50
2022-08-10T20:41:58.865Z,56.50
2022-08-10T20:44:40.368Z,56.70
2022-08-10T20:47:15.086Z,57.10
2022-08-10T20:49:53.917Z,56.90
2022-08-10T20:52:26.336Z,56.90
2022-08-10T20:55:02.582Z,56.20
2022-08-10T20:57:55.353Z,56.70
2022-08-10T21:00:33.879Z,56.20
2022-08-10T21:03:32.902Z,56.90
2022-08-10T21:06:40.992Z,57.40
2022-08-10T21:09:30.635Z,57.20
2022-08-10T21:12:30.636Z,57.20
2022-08-10T21:15:25.173Z,57.20
2022-08-10T21:18:20.465Z,57.30
2022-08-10T21:20:59.617Z,58.10
2022-08-10T21:23:31.366Z,56.50
2022-08-10T21:26:11.415Z,57.20
2022-08-10T21:29:39.781Z,57.40
2022-08-10T21:32:20.117Z,57.60
2022-08-10T21:35:20.421Z,57.70
2022-08-10T21:38:13.206Z,58.30
2022-08-10T21:41:57.529Z,58.10
2022-08-10T21:45:08.165Z,56.40
2022-08-10T21:48:30.360Z,58.60
2022-08-10T21:52:01.305Z,58.40
2022-08-10T21:54:42.591Z,58.90
2022-08-10T21:57:43.616Z,59.30
2022-08-10T22:00:41.482Z,59.50
2022-08-10T22:03:27.440Z,59.80
2022-08-10T22:06:28.341Z,59.90
2022-08-10T22:09:22.291Z,59.60
2022-08-10T22:12:25.026Z,59.30
2022-08-10T22:16:01.555Z,60.30
2022-08-10T22:18:33.730Z,59.80
2022-08-10T22:21:29.985Z,60.40
2022-08-10T22:24:41.305Z,60.70
2022-08-10T22:27:56.497Z,61.50
2022-08-10T22:31:14.968Z,61.10
2022-08-10T22:34:11.311Z,62.20
2022-08-10T22:37:32.842Z,61.60
2022-08-10T22:40:26.370Z,62.40
2022-08-10T22:43:14.423Z,62.50
2022-08-10T22:46:29.916Z,63.00
2022-08-10T22:49:01.713Z,62.40
2022-08-10T22:51:54.090Z,63.30
2022-08-10T22:54:45.232Z,63.60
2022-08-10T22:57:35.695Z,63.70
2022-08-10T23:00:16.490Z,64.10
2022-08-10T23:02:53.351Z,64.10
2022-08-10T23:05:32.772Z,64.50
2022-08-10T23:08:09.825Z,65.10
2022-08-10T23:10:44.220Z,63.80
2022-08-10T23:13:29.448Z,64.10
2022-08-10T23:16:26.772Z,64.80
2022-08-10T23:19:10.994Z,64.30
2022-08-10T23:22:04.272Z,65.20
2022-08-10T23:24:39.013Z,64.10
2022-08-10T23:27:12.447Z,65.30
2022-08-10T23:30:03.858Z,66.30
2022-08-10T23:32:33.321Z,66.10
2022-08-10T23:36:30.595Z,66.70
2022-08-10T23:37:59.003Z,66.70
2022-08-10T23:40:28.099Z,66.10
2022-08-10T23:42:58.880Z,67.50
2022-08-10T23:45:29.131Z,66.50
2022-08-10T23:48:21.649Z,68.20
2022-08-10T23:50:58.390Z,68.00
2022-08-10T23:53:33.830Z,68.60
2022-08-10T23:56:07.820Z,67.80
2022-08-10T23:58:41.447Z,68.40
